createdAt,value
2019-02-20T00:01:26.325Z,21.73
2019-02-20T00:03:55.509Z,21.27
2019-02-20T00:06:24.628Z,23.60
2019-02-20T00:08:53.740Z,17.85
2019-02-20T00:11:23.939Z,25.43
2019-02-20T00:13:53.058Z,22.48
2019-02-20T00:16:22.439Z,22.62
2019-02-20T00:18:51.555Z,22.98
2019-02-20T00:21:20.936Z,17.73
2019-02-20T00:23:50.052Z,16.75
2019-02-20T00:26:19.170Z,15.72
2019-02-20T00:28:48.304Z,19.42
2019-02-20T00:31:17.413Z,19.65
2019-02-20T00:33:46.538Z,19.45
2019-02-20T00:36:15.645Z,22.52
2019-02-20T00:38:44.763Z,22.85
2019-02-20T00:41:13.878Z,22.30
2019-02-20T00:43:44.630Z,25.45
2019-02-20T00:46:18.247Z,19.73
2019-02-20T00:48:49.009Z,17.85
2019-02-20T00:51:19.761Z,22.90
2019-02-20T00:53:50.530Z,27.07
2019-02-20T00:56:19.632Z,22.73
2019-02-20T00:58:48.754Z,23.15
2019-02-20T01:01:17.865Z,24.18
2019-02-20T01:03:46.984Z,19.02
2019-02-20T01:06:17.477Z,21.85
2019-02-20T01:08:46.589Z,25.50
2019-02-20T01:11:15.699Z,16.95
2019-02-20T01:13:44.814Z,22.20
2019-02-20T01:16:13.931Z,23.35
2019-02-20T01:18:43.365Z,24.85
2019-02-20T01:21:12.475Z,20.08
2019-02-20T01:23:41.592Z,15.95
2019-02-20T01:26:10.704Z,18.05
2019-02-20T01:28:39.821Z,20.23
2019-02-20T01:31:08.931Z,22.37
2019-02-20T01:33:38.050Z,25.17
2019-02-20T01:36:07.159Z,30.30
2019-02-20T01:38:36.284Z,18.95
2019-02-20T01:41:05.397Z,17.52
2019-02-20T01:43:35.492Z,24.63
2019-02-20T01:46:04.603Z,22.52
2019-02-20T01:48:33.717Z,27.02
2019-02-20T01:51:02.833Z,22.65
2019-02-20T01:53:31.943Z,23.55
2019-02-20T01:56:01.060Z,25.05
2019-02-20T01:58:30.171Z,23.42
2019-02-20T02:00:59.297Z,19.30
2019-02-20T02:03:28.404Z,25.23
2019-02-20T02:05:57.794Z,28.23
2019-02-20T02:08:26.904Z,23.60
2019-02-20T02:10:56.025Z,19.85
2019-02-20T02:13:25.136Z,19.67
2019-02-20T02:15:54.268Z,23.75
2019-02-20T02:18:23.384Z,22.40
2019-02-20T02:20:52.494Z,24.18
2019-02-20T02:23:21.626Z,29.10
2019-02-20T02:25:51.030Z,21.57
2019-02-20T02:28:20.138Z,24.50
2019-02-20T02:30:49.259Z,27.15
2019-02-20T02:33:18.371Z,25.80
2019-02-20T02:35:47.484Z,23.98
2019-02-20T02:38:16.598Z,29.20
2019-02-20T02:40:45.707Z,28.67
2019-02-20T02:43:14.843Z,29.00
2019-02-20T02:45:43.949Z,22.05
2019-02-20T02:48:13.404Z,22.70
2019-02-20T02:50:42.807Z,22.42
2019-02-20T02:53:11.931Z,24.10
2019-02-20T02:55:41.052Z,31.20
2019-02-20T02:58:10.166Z,21.82
2019-02-20T03:00:39.544Z,23.38
2019-02-20T03:03:09.599Z,22.95
2019-02-20T03:05:38.722Z,27.00
2019-02-20T03:08:07.832Z,20.15
2019-02-20T03:10:36.971Z,23.77
2019-02-20T03:13:06.076Z,23.18
2019-02-20T03:15:35.189Z,27.10
2019-02-20T03:18:04.305Z,23.90
2019-02-20T03:20:33.429Z,25.92
2019-02-20T03:23:02.546Z,25.32
2019-02-20T03:25:31.660Z,25.57
2019-02-20T03:28:00.787Z,27.02
2019-02-20T03:30:30.866Z,25.70
2019-02-20T03:32:59.991Z,28.32
2019-02-20T03:35:29.101Z,28.87
2019-02-20T03:37:58.212Z,20.48
2019-02-20T03:40:27.325Z,29.57
2019-02-20T03:42:56.441Z,23.77
2019-02-20T03:45:25.893Z,27.40
2019-02-20T03:47:55.033Z,27.27
2019-02-20T03:50:24.385Z,22.15
2019-02-20T03:52:53.508Z,25.52
2019-02-20T03:55:22.622Z,27.93
2019-02-20T03:57:52.819Z,20.88
2019-02-20T04:00:21.950Z,26.70
2019-02-20T04:02:51.077Z,24.57
2019-02-20T04:05:20.199Z,26.23
2019-02-20T04:07:49.321Z,27.45
2019-02-20T04:10:18.442Z,27.42
2019-02-20T04:12:47.850Z,28.92
2019-02-20T04:15:17.301Z,26.57
2019-02-20T04:17:47.416Z,24.67
2019-02-20T04:20:16.539Z,33.88
2019-02-20T04:22:45.657Z,25.10
2019-02-20T04:25:14.779Z,24.72
2019-02-20T04:27:43.897Z,24.67
2019-02-20T04:30:13.014Z,25.88
2019-02-20T04:32:42.137Z,27.13
2019-02-20T04:35:11.251Z,27.60
2019-02-20T04:37:40.477Z,23.10
2019-02-20T04:40:09.671Z,23.60
2019-02-20T04:42:38.777Z,23.50
2019-02-20T04:45:08.208Z,21.75
2019-02-20T04:47:37.358Z,22.07
2019-02-20T04:50:08.622Z,31.40
2019-02-20T04:52:37.790Z,24.85
2019-02-20T04:55:07.247Z,20.90
2019-02-20T04:57:37.334Z,24.27
2019-02-20T05:00:12.206Z,28.12
2019-02-20T05:02:41.323Z,25.17
2019-02-20T05:05:10.441Z,27.58
2019-02-20T05:07:39.552Z,22.48
2019-02-20T05:10:10.118Z,29.90
2019-02-20T05:12:39.529Z,24.90
2019-02-20T05:15:08.649Z,26.93
2019-02-20T05:17:37.773Z,28.90
2019-02-20T05:20:08.727Z,21.35
2019-02-20T05:22:37.851Z,26.33
2019-02-20T05:25:06.973Z,24.60
2019-02-20T05:27:36.098Z,24.85
2019-02-20T05:30:06.445Z,27.77
2019-02-20T05:32:35.573Z,26.75
2019-02-20T05:35:04.926Z,29.00
2019-02-20T05:37:34.050Z,25.30
2019-02-20T05:40:04.397Z,33.18
2019-02-20T05:42:33.516Z,25.80
2019-02-20T05:45:02.703Z,26.55
2019-02-20T05:47:31.818Z,23.87
2019-02-20T05:50:00.934Z,26.33
2019-02-20T05:52:30.054Z,30.48
2019-02-20T05:54:59.184Z,24.80
2019-02-20T05:57:28.312Z,22.62
2019-02-20T05:59:57.670Z,28.45
2019-02-20T06:02:26.861Z,34.35
2019-02-20T06:04:56.026Z,20.72
2019-02-20T06:07:25.096Z,27.67
2019-02-20T06:09:54.340Z,28.23
2019-02-20T06:12:23.459Z,29.32
2019-02-20T06:14:52.823Z,32.53
2019-02-20T06:17:21.938Z,27.58
2019-02-20T06:19:51.063Z,26.75
2019-02-20T06:22:20.201Z,33.63
2019-02-20T06:24:49.330Z,29.80
2019-02-20T06:27:19.424Z,28.52
2019-02-20T06:29:48.787Z,23.77
2019-02-20T06:32:17.918Z,36.15
2019-02-20T06:34:47.044Z,27.55
2019-02-20T06:37:16.173Z,25.97
2019-02-20T06:39:45.521Z,25.12
2019-02-20T06:42:14.912Z,26.33
2019-02-20T06:44:44.007Z,28.38
2019-02-20T06:47:13.368Z,29.10
2019-02-20T06:49:42.722Z,30.25
2019-02-20T06:52:12.082Z,37.15
2019-02-20T06:54:41.196Z,29.35
2019-02-20T06:57:10.549Z,31.35
2019-02-20T06:59:39.887Z,23.73
2019-02-20T07:02:09.128Z,26.60
2019-02-20T07:04:38.249Z,28.32
2019-02-20T07:07:10.623Z,30.85
2019-02-20T07:09:49.648Z,29.80
2019-02-20T07:12:27.868Z,32.58
2019-02-20T07:15:11.956Z,33.48
2019-02-20T07:20:28.783Z,32.28
2019-02-20T07:23:16.014Z,28.65
2019-02-20T07:25:51.139Z,29.92
2019-02-20T07:28:39.559Z,29.87
2019-02-20T07:31:08.682Z,28.55
2019-02-20T07:33:37.800Z,32.30
2019-02-20T07:36:06.938Z,28.32
2019-02-20T07:38:36.109Z,31.25
2019-02-20T07:41:05.244Z,35.88
2019-02-20T07:43:34.598Z,30.90
2019-02-20T07:46:03.722Z,32.15
2019-02-20T07:48:34.019Z,33.20
2019-02-20T07:51:04.104Z,31.97
2019-02-20T07:53:34.202Z,38.17
2019-02-20T07:56:03.317Z,39.33
2019-02-20T07:58:32.438Z,37.50
2019-02-20T08:01:01.571Z,38.00
2019-02-20T08:03:30.682Z,33.10
2019-02-20T08:05:59.798Z,31.40
2019-02-20T08:08:28.936Z,40.28
2019-02-20T08:10:58.042Z,33.48
2019-02-20T08:13:27.177Z,34.85
2019-02-20T08:15:56.551Z,32.78
2019-02-20T08:18:25.646Z,31.93
2019-02-20T08:20:54.763Z,30.82
2019-02-20T08:23:23.893Z,36.17
2019-02-20T08:25:53.014Z,33.50
2019-02-20T08:28:22.138Z,39.18
2019-02-20T08:30:51.261Z,37.42
2019-02-20T08:33:20.381Z,29.87
2019-02-20T08:35:49.498Z,34.48
2019-02-20T08:38:18.621Z,33.08
2019-02-20T08:40:47.778Z,35.15
2019-02-20T08:43:17.825Z,34.50
2019-02-20T08:45:46.938Z,35.40
2019-02-20T08:48:17.035Z,34.65
2019-02-20T08:50:46.421Z,34.45
2019-02-20T08:53:15.609Z,41.10
2019-02-20T08:55:44.727Z,39.05
2019-02-20T08:58:13.854Z,40.45
2019-02-20T09:00:42.975Z,34.90
2019-02-20T09:03:12.106Z,49.45
2019-02-20T09:05:41.294Z,37.05
2019-02-20T09:08:10.455Z,35.17
2019-02-20T09:10:39.535Z,34.98
2019-02-20T09:13:08.665Z,33.50
2019-02-20T09:15:37.775Z,37.93
2019-02-20T09:18:06.913Z,34.85
2019-02-20T09:20:36.029Z,35.85
2019-02-20T09:23:05.145Z,33.25
2019-02-20T09:25:41.333Z,40.60
2019-02-20T09:28:05.184Z,35.30
2019-02-20T09:30:34.275Z,33.28
2019-02-20T09:33:03.397Z,32.28
2019-02-20T09:35:32.513Z,38.45
2019-02-20T09:38:01.628Z,33.95
2019-02-20T09:40:30.756Z,36.95
2019-02-20T09:42:59.882Z,38.08
2019-02-20T09:45:29.007Z,33.90
2019-02-20T09:47:58.131Z,33.65
2019-02-20T09:50:28.219Z,34.58
2019-02-20T09:52:57.341Z,34.05
2019-02-20T09:55:26.473Z,38.30
2019-02-20T09:57:55.584Z,38.50
2019-02-20T10:00:25.675Z,37.13
2019-02-20T10:02:54.791Z,37.10
2019-02-20T10:05:24.240Z,38.98
2019-02-20T10:07:53.408Z,36.95
2019-02-20T10:10:22.854Z,38.92
2019-02-20T10:12:51.971Z,39.40
2019-02-20T10:15:21.092Z,44.83
2019-02-20T10:17:50.210Z,31.25
2019-02-20T10:20:19.345Z,35.58
2019-02-20T10:22:48.463Z,37.90
2019-02-20T10:25:17.587Z,32.10
2019-02-20T10:27:46.695Z,33.90
2019-02-20T10:30:17.931Z,32.23
2019-02-20T10:32:47.096Z,34.88
2019-02-20T10:35:16.240Z,33.90
2019-02-20T10:37:45.356Z,36.08
2019-02-20T10:40:14.477Z,37.70
2019-02-20T10:42:43.591Z,40.83
2019-02-20T10:45:13.348Z,37.15
2019-02-20T10:47:42.476Z,42.08
2019-02-20T10:50:12.437Z,43.98
2019-02-20T10:52:41.630Z,39.27
2019-02-20T10:55:10.990Z,34.25
2019-02-20T10:57:40.119Z,39.20
2019-02-20T11:00:23.472Z,34.18
2019-02-20T11:02:48.331Z,39.45
2019-02-20T11:05:17.460Z,37.03
2019-02-20T11:07:47.855Z,34.90
2019-02-20T11:10:16.977Z,32.60
2019-02-20T11:12:46.448Z,31.95
2019-02-20T11:15:15.638Z,35.20
2019-02-20T11:17:44.828Z,28.35
2019-02-20T11:20:14.183Z,32.80
2019-02-20T11:22:43.309Z,26.07
2019-02-20T11:25:12.907Z,30.43
2019-02-20T11:27:42.028Z,29.20
2019-02-20T11:30:19.600Z,32.28
2019-02-20T11:32:48.721Z,25.75
2019-02-20T11:35:17.856Z,28.75
2019-02-20T11:37:46.976Z,23.20
2019-02-20T11:40:16.110Z,23.20
2019-02-20T11:42:45.235Z,28.75
2019-02-20T11:45:16.457Z,24.25
2019-02-20T11:47:45.584Z,23.25
2019-02-20T11:50:14.702Z,32.80
2019-02-20T11:52:43.839Z,29.48
2019-02-20T11:55:14.000Z,26.50
2019-02-20T11:57:43.131Z,26.97
2019-02-20T12:00:14.646Z,20.90
2019-02-20T12:02:43.775Z,26.75
2019-02-20T12:05:12.897Z,22.15
2019-02-20T12:07:42.263Z,27.35
2019-02-20T12:10:12.950Z,22.07
2019-02-20T12:12:42.254Z,28.87
2019-02-20T12:15:11.615Z,21.73
2019-02-20T12:17:40.750Z,20.90
2019-02-20T12:20:09.864Z,21.27
2019-02-20T12:22:39.296Z,20.80
2019-02-20T12:25:09.468Z,21.12
2019-02-20T12:27:38.598Z,22.52
2019-02-20T12:30:11.891Z,20.10
2019-02-20T12:32:41.255Z,16.60
2019-02-20T12:35:10.365Z,18.05
2019-02-20T12:37:39.480Z,21.35
2019-02-20T12:40:09.836Z,17.10
2019-02-20T12:42:38.953Z,16.52
2019-02-20T12:45:08.751Z,19.87
2019-02-20T12:47:37.902Z,22.98
2019-02-20T12:50:12.005Z,20.00
2019-02-20T12:52:41.126Z,15.35
2019-02-20T12:55:10.420Z,21.42
2019-02-20T12:57:39.542Z,20.10
2019-02-20T13:00:11.454Z,21.05
2019-02-20T13:02:40.795Z,19.20
2019-02-20T13:05:09.909Z,20.25
2019-02-20T13:07:39.325Z,22.67
2019-02-20T13:10:09.193Z,20.68
2019-02-20T13:12:38.305Z,24.77
2019-02-20T13:15:10.038Z,18.52
2019-02-20T13:17:39.384Z,18.02
2019-02-20T13:20:10.042Z,15.28
2019-02-20T13:22:39.570Z,18.32
2019-02-20T13:25:09.536Z,19.98
2019-02-20T13:27:40.153Z,15.30
2019-02-20T13:30:11.718Z,14.73
2019-02-20T13:32:41.057Z,15.85
2019-02-20T13:35:11.147Z,14.05
2019-02-20T13:37:40.337Z,16.32
2019-02-20T13:40:10.590Z,12.90
2019-02-20T13:42:39.698Z,14.47
2019-02-20T13:45:09.305Z,17.32
2019-02-20T13:47:40.363Z,15.95
2019-02-20T13:50:11.916Z,18.25
2019-02-20T13:52:41.351Z,16.70
2019-02-20T13:55:10.471Z,17.82
2019-02-20T13:57:40.563Z,15.10
2019-02-20T14:00:13.434Z,15.63
2019-02-20T14:02:42.705Z,14.35
2019-02-20T14:05:11.827Z,14.87
2019-02-20T14:07:42.031Z,16.57
2019-02-20T14:10:12.204Z,18.00
2019-02-20T14:12:42.284Z,13.05
2019-02-20T14:15:12.117Z,15.35
2019-02-20T14:17:41.233Z,12.50
2019-02-20T14:20:11.492Z,16.00
2019-02-20T14:22:40.957Z,15.80
2019-02-20T14:25:10.754Z,12.70
2019-02-20T14:27:39.830Z,9.58
2019-02-20T14:30:12.580Z,12.53
2019-02-20T14:32:41.700Z,10.18
2019-02-20T14:35:12.669Z,12.80
2019-02-20T14:37:43.447Z,8.88
2019-02-20T14:40:12.571Z,10.28
2019-02-20T14:42:41.738Z,11.40
2019-02-20T14:45:15.943Z,10.20
2019-02-20T14:47:45.059Z,11.43
2019-02-20T14:50:14.173Z,15.70
2019-02-20T14:52:43.289Z,10.03
2019-02-20T14:55:12.409Z,10.78
2019-02-20T14:57:41.530Z,11.15
2019-02-20T15:00:13.060Z,11.65
2019-02-20T15:02:42.577Z,11.88
2019-02-20T15:05:12.113Z,10.90
2019-02-20T15:07:41.300Z,12.88
2019-02-20T15:10:11.387Z,10.28
2019-02-20T15:12:40.504Z,13.53
2019-02-20T15:15:13.099Z,11.15
2019-02-20T15:17:42.228Z,10.80
2019-02-20T15:20:11.419Z,12.53
2019-02-20T15:22:40.571Z,12.35
2019-02-20T15:25:09.962Z,11.53
2019-02-20T15:27:39.083Z,13.28
2019-02-20T15:30:12.461Z,15.72
2019-02-20T15:32:41.751Z,12.33
2019-02-20T15:35:11.136Z,13.25
2019-02-20T15:37:40.262Z,13.32
2019-02-20T15:40:09.747Z,12.00
2019-02-20T15:42:38.883Z,14.58
2019-02-20T15:45:12.175Z,14.90
2019-02-20T15:47:41.305Z,15.60
2019-02-20T15:50:14.459Z,19.23
2019-02-20T15:52:43.592Z,14.87
2019-02-20T15:55:13.679Z,14.33
2019-02-20T15:57:42.822Z,16.00
2019-02-20T16:00:18.220Z,13.18
2019-02-20T16:02:47.358Z,13.28
2019-02-20T16:05:16.999Z,14.33
2019-02-20T16:07:46.118Z,19.35
2019-02-20T16:10:15.407Z,12.55
2019-02-20T16:12:44.660Z,12.90
2019-02-20T16:15:14.698Z,15.20
2019-02-20T16:17:44.895Z,13.45
2019-02-20T16:20:14.461Z,17.45
2019-02-20T16:22:43.582Z,12.90
2019-02-20T16:25:15.094Z,12.75
2019-02-20T16:27:47.027Z,12.95
2019-02-20T16:30:15.210Z,12.98
2019-02-20T16:32:44.325Z,16.23
2019-02-20T16:35:14.691Z,13.58
2019-02-20T16:37:44.054Z,12.33
2019-02-20T16:40:14.969Z,14.63
2019-02-20T16:42:44.156Z,14.47
2019-02-20T16:45:21.905Z,13.20
2019-02-20T16:47:51.457Z,12.47
2019-02-20T16:50:20.833Z,12.95
2019-02-20T16:52:50.327Z,16.40
2019-02-20T16:55:19.996Z,15.53
2019-02-20T16:57:56.251Z,17.98
2019-02-20T17:00:22.098Z,14.05
2019-02-20T17:02:51.917Z,16.82
2019-02-20T17:05:21.052Z,18.00
2019-02-20T17:07:50.409Z,14.93
2019-02-20T17:10:19.775Z,17.90
2019-02-20T17:12:48.896Z,16.90
2019-02-20T17:15:18.116Z,17.80
2019-02-20T17:17:47.503Z,44.15
2019-02-20T17:20:18.081Z,23.62
2019-02-20T17:22:47.181Z,19.92
2019-02-20T17:25:16.883Z,22.77
2019-02-20T17:27:46.010Z,21.52
2019-02-20T17:30:16.279Z,24.02
2019-02-20T17:32:45.792Z,21.15
2019-02-20T17:35:17.061Z,46.92
2019-02-20T17:37:45.915Z,59.93
2019-02-20T17:40:15.214Z,43.60
2019-02-20T17:42:44.412Z,54.80
2019-02-20T17:45:17.875Z,43.90
2019-02-20T17:47:47.227Z,24.07
2019-02-20T17:50:22.146Z,25.32
2019-02-20T17:52:51.511Z,32.73
2019-02-20T17:55:20.893Z,31.05
2019-02-20T17:57:50.005Z,23.83
2019-02-20T18:00:20.784Z,25.55
2019-02-20T18:02:49.885Z,24.63
2019-02-20T18:05:19.251Z,23.15
2019-02-20T18:07:51.725Z,20.48
2019-02-20T18:10:19.200Z,20.02
2019-02-20T18:12:48.324Z,17.45
2019-02-20T18:15:17.455Z,19.82
2019-02-20T18:17:46.580Z,24.07
2019-02-20T18:20:15.700Z,21.48
2019-02-20T18:22:44.824Z,21.02
2019-02-20T18:25:13.956Z,23.55
2019-02-20T18:27:43.163Z,22.65
2019-02-20T18:30:16.139Z,20.70
2019-02-20T18:32:45.639Z,20.23
2019-02-20T18:35:16.864Z,20.60
2019-02-20T18:37:45.981Z,24.12
2019-02-20T18:40:17.984Z,18.70
2019-02-20T18:42:47.181Z,24.65
2019-02-20T18:45:16.306Z,22.07
2019-02-20T18:47:45.435Z,22.32
2019-02-20T18:50:15.540Z,29.90
2019-02-20T18:52:44.728Z,30.62
2019-02-20T18:55:14.219Z,21.05
2019-02-20T18:57:43.551Z,23.12
2019-02-20T19:00:15.324Z,22.50
2019-02-20T19:02:44.618Z,27.48
2019-02-20T19:05:13.718Z,25.23
2019-02-20T19:07:44.858Z,23.60
2019-02-20T19:10:24.523Z,25.77
2019-02-20T19:13:11.771Z,26.57
2019-02-20T19:15:56.326Z,23.35
2019-02-20T19:18:43.809Z,32.88
2019-02-20T19:21:34.129Z,30.15
2019-02-20T19:24:18.237Z,24.77
2019-02-20T19:29:20.872Z,24.02
2019-02-20T19:32:15.669Z,25.88
2019-02-20T19:35:04.016Z,26.07
2019-02-20T19:37:51.329Z,24.07
2019-02-20T19:40:32.251Z,25.88
2019-02-20T19:43:07.587Z,22.35
2019-02-20T19:45:40.005Z,23.12
2019-02-20T19:48:27.013Z,24.92
2019-02-20T19:51:08.187Z,27.62
2019-02-20T19:54:01.204Z,23.55
2019-02-20T19:56:48.505Z,24.63
2019-02-20T19:59:40.496Z,27.62
2019-02-20T20:02:15.575Z,25.57
2019-02-20T20:05:22.557Z,21.57
2019-02-20T20:07:57.975Z,23.60
2019-02-20T20:10:51.734Z,27.27
2019-02-20T20:13:24.185Z,21.12
2019-02-20T20:15:59.121Z,21.02
2019-02-20T20:18:51.114Z,22.20
2019-02-20T20:21:23.482Z,24.95
2019-02-20T20:24:12.493Z,19.65
2019-02-20T20:26:50.128Z,21.52
2019-02-20T20:29:51.399Z,22.52
2019-02-20T20:32:32.800Z,25.32
2019-02-20T20:35:10.992Z,27.80
2019-02-20T20:37:46.248Z,32.90
2019-02-20T20:40:44.261Z,39.35
2019-02-20T20:43:25.563Z,66.67
2019-02-20T20:46:20.565Z,57.38
2019-02-20T20:49:04.447Z,52.23
2019-02-20T20:51:40.595Z,37.25
2019-02-20T20:54:30.758Z,28.52
2019-02-20T20:57:24.725Z,26.23
2019-02-20T21:00:06.111Z,22.67
2019-02-20T21:02:41.634Z,21.62
2019-02-20T21:05:22.747Z,23.00
2019-02-20T21:08:03.702Z,26.68
2019-02-20T21:11:10.409Z,26.75
2019-02-20T21:14:05.234Z,26.45
2019-02-20T21:16:52.295Z,26.52
2019-02-20T21:19:42.610Z,25.12
2019-02-20T21:22:20.944Z,27.30
2019-02-20T21:25:15.775Z,23.98
2019-02-20T21:27:54.771Z,21.60
2019-02-20T21:30:46.687Z,21.93
2019-02-20T21:33:25.716Z,22.80
2019-02-20T21:36:01.132Z,24.10
2019-02-20T21:38:42.562Z,21.97
2019-02-20T21:41:23.750Z,22.80
2019-02-20T21:44:04.940Z,25.60
2019-02-20T21:46:54.576Z,20.77
2019-02-20T21:49:29.516Z,24.50
2019-02-20T21:52:10.687Z,28.35
2019-02-20T21:54:51.772Z,24.40
2019-02-20T21:57:24.145Z,25.15
2019-02-20T22:00:05.594Z,25.02
2019-02-20T22:02:51.397Z,26.33
2019-02-20T22:05:24.187Z,26.20
2019-02-20T22:08:13.076Z,23.62
2019-02-20T22:11:13.551Z,26.33
2019-02-20T22:14:00.563Z,22.58
2019-02-20T22:16:41.560Z,22.05
2019-02-20T22:19:14.090Z,20.90
2019-02-20T22:22:08.922Z,23.70
2019-02-20T22:25:15.186Z,26.35
2019-02-20T22:27:53.494Z,26.65
2019-02-20T22:30:26.193Z,22.32
2019-02-20T22:33:16.843Z,25.40
2019-02-20T22:36:06.688Z,25.45
2019-02-20T22:38:55.802Z,25.68
2019-02-20T22:41:30.958Z,24.43
2019-02-20T22:44:03.419Z,27.52
2019-02-20T22:46:36.139Z,23.62
2019-02-20T22:49:18.473Z,27.55
2019-02-20T22:51:53.992Z,27.70
2019-02-20T22:54:50.227Z,26.33
2019-02-20T22:57:40.694Z,28.45
2019-02-20T23:00:37.336Z,27.15
2019-02-20T23:03:37.003Z,29.02
2019-02-20T23:06:09.684Z,26.68
2019-02-20T23:08:53.819Z,26.55
2019-02-20T23:14:07.404Z,24.90
2019-02-20T23:16:36.607Z,26.35
2019-02-20T23:19:05.727Z,26.15
2019-02-20T23:21:34.861Z,27.05
2019-02-20T23:24:03.970Z,30.37
2019-02-20T23:26:33.091Z,29.45
2019-02-20T23:29:02.209Z,28.50
2019-02-20T23:31:31.326Z,26.77
2019-02-20T23:34:00.452Z,31.55
2019-02-20T23:36:29.572Z,27.60
2019-02-20T23:38:58.691Z,28.25
2019-02-20T23:41:27.804Z,27.17
2019-02-20T23:43:56.935Z,30.62
2019-02-20T23:46:26.049Z,34.18
2019-02-20T23:48:55.183Z,29.50
2019-02-20T23:51:24.303Z,29.70
2019-02-20T23:53:53.444Z,30.27
2019-02-20T23:56:22.544Z,27.25
2019-02-20T23:58:51.663Z,30.72
